sensor_id;sensor_type;location;lat;lon;timestamp;temperature;humidity
68350;DHT22;55268;-34.538;-58.598;2022-09-09T00:04:37;13.30;72.60
68350;DHT22;55268;-34.538;-58.598;2022-09-09T00:07:14;13.30;71.80
68350;DHT22;55268;-34.538;-58.598;2022-09-09T00:09:50;13.30;72.60
68350;DHT22;55268;-34.538;-58.598;2022-09-09T00:12:48;13.30;72.60
68350;DHT22;55268;-34.538;-58.598;2022-09-09T00:15:22;13.30;72.40
68350;DHT22;55268;-34.538;-58.598;2022-09-09T00:18:02;13.10;72.40
68350;DHT22;55268;-34.538;-58.598;2022-09-09T00:26:04;12.70;75.60
68350;DHT22;55268;-34.538;-58.598;2022-09-09T00:28:41;12.40;77.50
68350;DHT22;55268;-34.538;-58.598;2022-09-09T00:31:13;12.30;78.30
68350;DHT22;55268;-34.538;-58.598;2022-09-09T00:33:41;12.20;78.50
68350;DHT22;55268;-34.538;-58.598;2022-09-09T00:36:15;12.20;78.00
68350;DHT22;55268;-34.538;-58.598;2022-09-09T00:38:51;12.20;78.40
68350;DHT22;55268;-34.538;-58.598;2022-09-09T00:41:21;12.20;77.90
68350;DHT22;55268;-34.538;-58.598;2022-09-09T00:46:41;12.20;77.70
68350;DHT22;55268;-34.538;-58.598;2022-09-09T00:51:58;12.00;77.60
68350;DHT22;55268;-34.538;-58.598;2022-09-09T00:57:30;12.00;77.50
68350;DHT22;55268;-34.538;-58.598;2022-09-09T01:00:14;12.00;76.50
68350;DHT22;55268;-34.538;-58.598;2022-09-09T01:14:50;11.80;76.30
68350;DHT22;55268;-34.538;-58.598;2022-09-09T01:20:31;11.50;77.00
68350;DHT22;55268;-34.538;-58.598;2022-09-09T01:28:30;11.60;77.10
68350;DHT22;55268;-34.538;-58.598;2022-09-09T01:30:59;11.70;76.40
68350;DHT22;55268;-34.538;-58.598;2022-09-09T01:33:27;11.70;75.60
68350;DHT22;55268;-34.538;-58.598;2022-09-09T01:36:03;11.70;75.50
68350;DHT22;55268;-34.538;-58.598;2022-09-09T01:38:34;11.70;76.50
68350;DHT22;55268;-34.538;-58.598;2022-09-09T01:41:01;11.70;76.20
68350;DHT22;55268;-34.538;-58.598;2022-09-09T01:43:29;11.80;76.10
68350;DHT22;55268;-34.538;-58.598;2022-09-09T01:45:59;11.80;76.40
68350;DHT22;55268;-34.538;-58.598;2022-09-09T01:48:28;11.80;76.10
68350;DHT22;55268;-34.538;-58.598;2022-09-09T01:50:56;11.60;76.90
68350;DHT22;55268;-34.538;-58.598;2022-09-09T01:53:23;11.60;77.00
68350;DHT22;55268;-34.538;-58.598;2022-09-09T01:58:34;11.50;76.80
68350;DHT22;55268;-34.538;-58.598;2022-09-09T02:01:13;11.50;77.00
68350;DHT22;55268;-34.538;-58.598;2022-09-09T02:03:49;11.50;76.90
68350;DHT22;55268;-34.538;-58.598;2022-09-09T02:08:50;11.50;76.60
68350;DHT22;55268;-34.538;-58.598;2022-09-09T02:11:20;11.50;76.70
68350;DHT22;55268;-34.538;-58.598;2022-09-09T02:13:51;11.50;77.30
68350;DHT22;55268;-34.538;-58.598;2022-09-09T02:21:44;11.60;75.90
68350;DHT22;55268;-34.538;-58.598;2022-09-09T02:24:14;11.60;76.20
68350;DHT22;55268;-34.538;-58.598;2022-09-09T02:26:46;11.40;77.40
68350;DHT22;55268;-34.538;-58.598;2022-09-09T02:29:19;11.50;77.00
68350;DHT22;55268;-34.538;-58.598;2022-09-09T02:31:50;11.50;77.00
68350;DHT22;55268;-34.538;-58.598;2022-09-09T02:34:20;11.50;77.00
68350;DHT22;55268;-34.538;-58.598;2022-09-09T02:36:50;11.60;76.00
68350;DHT22;55268;-34.538;-58.598;2022-09-09T02:39:20;11.60;76.40
68350;DHT22;55268;-34.538;-58.598;2022-09-09T02:41:48;11.60;76.30
68350;DHT22;55268;-34.538;-58.598;2022-09-09T02:44:17;11.70;76.20
68350;DHT22;55268;-34.538;-58.598;2022-09-09T02:52:27;11.80;75.30
68350;DHT22;55268;-34.538;-58.598;2022-09-09T02:55:04;11.80;75.20
68350;DHT22;55268;-34.538;-58.598;2022-09-09T02:57:33;11.90;74.50
68350;DHT22;55268;-34.538;-58.598;2022-09-09T03:00:01;11.90;74.00
68350;DHT22;55268;-34.538;-58.598;2022-09-09T03:02:28;11.90;74.10
68350;DHT22;55268;-34.538;-58.598;2022-09-09T03:04:56;11.90;74.60
68350;DHT22;55268;-34.538;-58.598;2022-09-09T03:07:24;11.90;73.70
68350;DHT22;55268;-34.538;-58.598;2022-09-09T03:09:52;11.90;73.80
68350;DHT22;55268;-34.538;-58.598;2022-09-09T03:12:19;11.90;73.60
68350;DHT22;55268;-34.538;-58.598;2022-09-09T03:14:46;11.90;73.50
68350;DHT22;55268;-34.538;-58.598;2022-09-09T03:17:13;11.80;73.70
68350;DHT22;55268;-34.538;-58.598;2022-09-09T03:19:40;11.80;74.30
68350;DHT22;55268;-34.538;-58.598;2022-09-09T03:22:09;11.80;74.70
68350;DHT22;55268;-34.538;-58.598;2022-09-09T03:24:36;11.90;74.00
68350;DHT22;55268;-34.538;-58.598;2022-09-09T03:27:03;12.00;73.80
68350;DHT22;55268;-34.538;-58.598;2022-09-09T03:29:30;12.00;73.10
68350;DHT22;55268;-34.538;-58.598;2022-09-09T03:31:58;11.90;74.20
68350;DHT22;55268;-34.538;-58.598;2022-09-09T03:34:24;11.90;73.50
68350;DHT22;55268;-34.538;-58.598;2022-09-09T03:36:51;11.80;73.80
68350;DHT22;55268;-34.538;-58.598;2022-09-09T03:39:18;11.70;74.10
68350;DHT22;55268;-34.538;-58.598;2022-09-09T03:41:45;11.70;74.20
68350;DHT22;55268;-34.538;-58.598;2022-09-09T03:44:14;11.70;74.20
68350;DHT22;55268;-34.538;-58.598;2022-09-09T03:46:41;11.60;74.60
68350;DHT22;55268;-34.538;-58.598;2022-09-09T03:49:08;11.60;74.90
68350;DHT22;55268;-34.538;-58.598;2022-09-09T03:51:36;11.70;74.30
68350;DHT22;55268;-34.538;-58.598;2022-09-09T03:54:05;11.70;74.70
68350;DHT22;55268;-34.538;-58.598;2022-09-09T03:56:34;11.70;74.10
68350;DHT22;55268;-34.538;-58.598;2022-09-09T03:59:01;11.60;74.00
68350;DHT22;55268;-34.538;-58.598;2022-09-09T04:01:29;11.60;74.50
68350;DHT22;55268;-34.538;-58.598;2022-09-09T04:03:55;11.60;74.00
68350;DHT22;55268;-34.538;-58.598;2022-09-09T04:06:24;11.50;74.10
68350;DHT22;55268;-34.538;-58.598;2022-09-09T04:08:52;11.40;75.00
68350;DHT22;55268;-34.538;-58.598;2022-09-09T04:11:19;11.30;74.80
68350;DHT22;55268;-34.538;-58.598;2022-09-09T04:13:46;11.30;75.30
68350;DHT22;55268;-34.538;-58.598;2022-09-09T04:16:13;11.30;75.60
68350;DHT22;55268;-34.538;-58.598;2022-09-09T04:18:41;11.20;75.70
68350;DHT22;55268;-34.538;-58.598;2022-09-09T04:21:10;11.30;75.50
68350;DHT22;55268;-34.538;-58.598;2022-09-09T04:23:38;11.30;75.30
68350;DHT22;55268;-34.538;-58.598;2022-09-09T04:26:06;11.30;75.10
68350;DHT22;55268;-34.538;-58.598;2022-09-09T04:28:35;11.20;75.90
68350;DHT22;55268;-34.538;-58.598;2022-09-09T04:31:07;11.20;75.40
68350;DHT22;55268;-34.538;-58.598;2022-09-09T04:33:35;11.10;75.60
68350;DHT22;55268;-34.538;-58.598;2022-09-09T04:36:02;11.20;75.50
68350;DHT22;55268;-34.538;-58.598;2022-09-09T04:38:29;11.10;75.30
68350;DHT22;55268;-34.538;-58.598;2022-09-09T04:40:56;11.00;75.60
68350;DHT22;55268;-34.538;-58.598;2022-09-09T04:43:23;11.00;75.80
68350;DHT22;55268;-34.538;-58.598;2022-09-09T04:45:52;11.00;75.80
68350;DHT22;55268;-34.538;-58.598;2022-09-09T04:48:19;11.10;75.30
68350;DHT22;55268;-34.538;-58.598;2022-09-09T04:53:23;11.10;75.10
68350;DHT22;55268;-34.538;-58.598;2022-09-09T04:55:53;11.00;76.00
68350;DHT22;55268;-34.538;-58.598;2022-09-09T04:58:27;10.90;76.40
68350;DHT22;55268;-34.538;-58.598;2022-09-09T05:00:54;10.90;76.30
68350;DHT22;55268;-34.538;-58.598;2022-09-09T05:03:21;10.90;76.50
68350;DHT22;55268;-34.538;-58.598;2022-09-09T05:05:47;10.90;76.20
68350;DHT22;55268;-34.538;-58.598;2022-09-09T05:08:15;10.80;76.70
68350;DHT22;55268;-34.538;-58.598;2022-09-09T05:10:41;10.70;77.20
68350;DHT22;55268;-34.538;-58.598;2022-09-09T05:13:08;10.80;77.00
68350;DHT22;55268;-34.538;-58.598;2022-09-09T05:15:35;10.70;77.30
68350;DHT22;55268;-34.538;-58.598;2022-09-09T05:18:02;10.80;77.20
68350;DHT22;55268;-34.538;-58.598;2022-09-09T05:20:29;10.70;77.20
68350;DHT22;55268;-34.538;-58.598;2022-09-09T05:22:57;10.70;77.40
68350;DHT22;55268;-34.538;-58.598;2022-09-09T05:25:24;10.60;77.10
68350;DHT22;55268;-34.538;-58.598;2022-09-09T05:27:52;10.50;76.60
68350;DHT22;55268;-34.538;-58.598;2022-09-09T05:30:19;10.40;76.10
68350;DHT22;55268;-34.538;-58.598;2022-09-09T05:32:46;10.30;76.90
68350;DHT22;55268;-34.538;-58.598;2022-09-09T05:35:15;10.30;76.90
68350;DHT22;55268;-34.538;-58.598;2022-09-09T05:37:42;10.30;76.60
68350;DHT22;55268;-34.538;-58.598;2022-09-09T05:40:09;10.30;76.50
68350;DHT22;55268;-34.538;-58.598;2022-09-09T05:42:37;10.30;75.90
68350;DHT22;55268;-34.538;-58.598;2022-09-09T05:45:05;10.30;75.90
68350;DHT22;55268;-34.538;-58.598;2022-09-09T05:47:34;10.40;75.50
68350;DHT22;55268;-34.538;-58.598;2022-09-09T05:50:01;10.40;75.40
68350;DHT22;55268;-34.538;-58.598;2022-09-09T05:52:28;10.40;75.20
68350;DHT22;55268;-34.538;-58.598;2022-09-09T05:54:55;10.40;75.50
68350;DHT22;55268;-34.538;-58.598;2022-09-09T05:57:23;10.40;75.90
68350;DHT22;55268;-34.538;-58.598;2022-09-09T05:59:50;10.40;75.80
68350;DHT22;55268;-34.538;-58.598;2022-09-09T06:02:16;10.40;76.30
68350;DHT22;55268;-34.538;-58.598;2022-09-09T06:04:43;10.30;76.40
68350;DHT22;55268;-34.538;-58.598;2022-09-09T06:07:10;10.20;76.60
68350;DHT22;55268;-34.538;-58.598;2022-09-09T06:09:37;10.10;77.30
68350;DHT22;55268;-34.538;-58.598;2022-09-09T06:12:03;10.10;77.30
68350;DHT22;55268;-34.538;-58.598;2022-09-09T06:14:30;10.10;77.80
68350;DHT22;55268;-34.538;-58.598;2022-09-09T06:16:58;10.10;77.30
68350;DHT22;55268;-34.538;-58.598;2022-09-09T06:19:25;10.00;77.70
68350;DHT22;55268;-34.538;-58.598;2022-09-09T06:21:52;10.00;76.80
68350;DHT22;55268;-34.538;-58.598;2022-09-09T06:24:19;9.90;77.40
68350;DHT22;55268;-34.538;-58.598;2022-09-09T06:26:46;9.90;77.20
68350;DHT22;55268;-34.538;-58.598;2022-09-09T06:29:13;9.80;77.30
68350;DHT22;55268;-34.538;-58.598;2022-09-09T06:31:40;9.80;77.40
68350;DHT22;55268;-34.538;-58.598;2022-09-09T06:34:14;9.90;77.10
68350;DHT22;55268;-34.538;-58.598;2022-09-09T06:36:41;9.90;76.40
68350;DHT22;55268;-34.538;-58.598;2022-09-09T06:39:08;9.90;76.70
68350;DHT22;55268;-34.538;-58.598;2022-09-09T06:41:37;9.90;75.80
68350;DHT22;55268;-34.538;-58.598;2022-09-09T06:44:04;9.90;75.90
68350;DHT22;55268;-34.538;-58.598;2022-09-09T06:46:31;10.00;75.70
68350;DHT22;55268;-34.538;-58.598;2022-09-09T06:48:58;10.00;75.00
68350;DHT22;55268;-34.538;-58.598;2022-09-09T06:51:30;9.90;75.60
68350;DHT22;55268;-34.538;-58.598;2022-09-09T06:53:59;9.90;74.90
68350;DHT22;55268;-34.538;-58.598;2022-09-09T06:56:31;9.90;73.40
68350;DHT22;55268;-34.538;-58.598;2022-09-09T06:59:00;9.80;73.70
68350;DHT22;55268;-34.538;-58.598;2022-09-09T07:01:33;9.80;73.50
68350;DHT22;55268;-34.538;-58.598;2022-09-09T07:04:00;9.70;73.20
68350;DHT22;55268;-34.538;-58.598;2022-09-09T07:06:37;9.60;73.70
68350;DHT22;55268;-34.538;-58.598;2022-09-09T07:09:06;9.70;73.50
68350;DHT22;55268;-34.538;-58.598;2022-09-09T07:11:38;9.70;73.50
68350;DHT22;55268;-34.538;-58.598;2022-09-09T07:14:05;9.70;73.40
68350;DHT22;55268;-34.538;-58.598;2022-09-09T07:16:33;9.70;74.00
68350;DHT22;55268;-34.538;-58.598;2022-09-09T07:19:03;9.60;73.70
68350;DHT22;55268;-34.538;-58.598;2022-09-09T07:21:30;9.60;73.50
68350;DHT22;55268;-34.538;-58.598;2022-09-09T07:23:57;9.60;74.00
68350;DHT22;55268;-34.538;-58.598;2022-09-09T07:26:26;9.50;74.10
68350;DHT22;55268;-34.538;-58.598;2022-09-09T07:28:55;9.60;73.80
68350;DHT22;55268;-34.538;-58.598;2022-09-09T07:31:32;9.50;73.10
68350;DHT22;55268;-34.538;-58.598;2022-09-09T07:34:00;9.40;72.60
68350;DHT22;55268;-34.538;-58.598;2022-09-09T07:36:30;9.40;72.70
68350;DHT22;55268;-34.538;-58.598;2022-09-09T07:39:01;9.40;72.20
68350;DHT22;55268;-34.538;-58.598;2022-09-09T07:41:31;9.40;72.00
68350;DHT22;55268;-34.538;-58.598;2022-09-09T07:44:03;9.40;71.20
68350;DHT22;55268;-34.538;-58.598;2022-09-09T07:46:30;9.50;71.30
68350;DHT22;55268;-34.538;-58.598;2022-09-09T07:48:58;9.50;70.90
68350;DHT22;55268;-34.538;-58.598;2022-09-09T07:51:29;9.50;71.30
68350;DHT22;55268;-34.538;-58.598;2022-09-09T07:53:59;9.60;70.80
68350;DHT22;55268;-34.538;-58.598;2022-09-09T07:56:27;9.60;70.40
68350;DHT22;55268;-34.538;-58.598;2022-09-09T07:58:55;9.40;71.30
68350;DHT22;55268;-34.538;-58.598;2022-09-09T08:01:23;9.40;71.60
68350;DHT22;55268;-34.538;-58.598;2022-09-09T08:04:09;9.40;71.90
68350;DHT22;55268;-34.538;-58.598;2022-09-09T08:06:39;9.40;72.30
68350;DHT22;55268;-34.538;-58.598;2022-09-09T08:09:07;9.50;70.90
68350;DHT22;55268;-34.538;-58.598;2022-09-09T08:11:35;9.50;71.10
68350;DHT22;55268;-34.538;-58.598;2022-09-09T08:14:03;9.60;70.10
68350;DHT22;55268;-34.538;-58.598;2022-09-09T08:16:32;9.60;69.30
68350;DHT22;55268;-34.538;-58.598;2022-09-09T08:18:59;9.50;69.30
68350;DHT22;55268;-34.538;-58.598;2022-09-09T08:21:29;9.40;69.10
68350;DHT22;55268;-34.538;-58.598;2022-09-09T08:23:58;9.40;69.40
68350;DHT22;55268;-34.538;-58.598;2022-09-09T08:26:26;9.30;69.60
68350;DHT22;55268;-34.538;-58.598;2022-09-09T08:28:55;9.40;69.60
68350;DHT22;55268;-34.538;-58.598;2022-09-09T08:31:26;9.30;69.90
68350;DHT22;55268;-34.538;-58.598;2022-09-09T08:33:55;9.30;69.90
68350;DHT22;55268;-34.538;-58.598;2022-09-09T08:36:24;9.30;69.80
68350;DHT22;55268;-34.538;-58.598;2022-09-09T08:38:54;9.30;69.60
68350;DHT22;55268;-34.538;-58.598;2022-09-09T08:41:48;9.30;69.80
68350;DHT22;55268;-34.538;-58.598;2022-09-09T08:46:57;9.20;70.20
68350;DHT22;55268;-34.538;-58.598;2022-09-09T08:54:50;9.00;69.40
68350;DHT22;55268;-34.538;-58.598;2022-09-09T08:57:23;9.00;70.00
68350;DHT22;55268;-34.538;-58.598;2022-09-09T08:59:53;9.00;69.50
68350;DHT22;55268;-34.538;-58.598;2022-09-09T09:02:34;9.10;69.10
68350;DHT22;55268;-34.538;-58.598;2022-09-09T09:05:32;9.00;69.50
68350;DHT22;55268;-34.538;-58.598;2022-09-09T09:08:18;9.10;69.50
68350;DHT22;55268;-34.538;-58.598;2022-09-09T09:10:49;9.10;69.30
68350;DHT22;55268;-34.538;-58.598;2022-09-09T09:16:46;8.90;69.30
68350;DHT22;55268;-34.538;-58.598;2022-09-09T09:19:16;9.00;68.70
68350;DHT22;55268;-34.538;-58.598;2022-09-09T09:21:58;9.00;68.00
68350;DHT22;55268;-34.538;-58.598;2022-09-09T09:27:04;8.90;68.00
68350;DHT22;55268;-34.538;-58.598;2022-09-09T09:29:38;8.90;67.10
68350;DHT22;55268;-34.538;-58.598;2022-09-09T09:32:08;8.90;66.70
68350;DHT22;55268;-34.538;-58.598;2022-09-09T09:34:38;8.90;66.70
68350;DHT22;55268;-34.538;-58.598;2022-09-09T09:37:17;8.90;66.70
68350;DHT22;55268;-34.538;-58.598;2022-09-09T09:39:47;8.90;65.60
68350;DHT22;55268;-34.538;-58.598;2022-09-09T09:42:17;9.00;65.60
68350;DHT22;55268;-34.538;-58.598;2022-09-09T09:44:44;9.00;65.80
68350;DHT22;55268;-34.538;-58.598;2022-09-09T09:47:17;9.00;64.80
68350;DHT22;55268;-34.538;-58.598;2022-09-09T09:50:00;9.00;65.30
68350;DHT22;55268;-34.538;-58.598;2022-09-09T09:52:30;9.00;65.40
68350;DHT22;55268;-34.538;-58.598;2022-09-09T09:54:58;9.00;65.60
68350;DHT22;55268;-34.538;-58.598;2022-09-09T09:57:28;9.10;65.20
68350;DHT22;55268;-34.538;-58.598;2022-09-09T10:00:16;9.30;64.50
68350;DHT22;55268;-34.538;-58.598;2022-09-09T10:02:45;9.40;64.60
68350;DHT22;55268;-34.538;-58.598;2022-09-09T10:05:20;9.50;64.00
68350;DHT22;55268;-34.538;-58.598;2022-09-09T10:08:08;9.50;63.40
68350;DHT22;55268;-34.538;-58.598;2022-09-09T10:16:18;9.30;63.90
68350;DHT22;55268;-34.538;-58.598;2022-09-09T10:18:44;9.30;63.30
68350;DHT22;55268;-34.538;-58.598;2022-09-09T10:51:22;8.80;63.90
68350;DHT22;55268;-34.538;-58.598;2022-09-09T10:56:41;8.30;64.60
68350;DHT22;55268;-34.538;-58.598;2022-09-09T10:59:17;8.00;66.40
68350;DHT22;55268;-34.538;-58.598;2022-09-09T11:01:51;7.90;66.90
68350;DHT22;55268;-34.538;-58.598;2022-09-09T11:04:29;7.90;66.70
68350;DHT22;55268;-34.538;-58.598;2022-09-09T11:07:05;7.70;67.40
68350;DHT22;55268;-34.538;-58.598;2022-09-09T11:09:38;7.60;67.60
68350;DHT22;55268;-34.538;-58.598;2022-09-09T11:12:11;7.60;67.80
68350;DHT22;55268;-34.538;-58.598;2022-09-09T11:14:48;7.60;68.30
68350;DHT22;55268;-34.538;-58.598;2022-09-09T11:17:20;7.60;68.40
68350;DHT22;55268;-34.538;-58.598;2022-09-09T11:19:48;7.60;68.10
68350;DHT22;55268;-34.538;-58.598;2022-09-09T11:22:35;7.60;68.20
68350;DHT22;55268;-34.538;-58.598;2022-09-09T11:25:26;7.70;68.30
68350;DHT22;55268;-34.538;-58.598;2022-09-09T11:30:32;7.60;68.10
68350;DHT22;55268;-34.538;-58.598;2022-09-09T11:38:50;7.80;68.60
68350;DHT22;55268;-34.538;-58.598;2022-09-09T11:41:19;7.80;67.50
68350;DHT22;55268;-34.538;-58.598;2022-09-09T11:43:51;7.80;67.10
68350;DHT22;55268;-34.538;-58.598;2022-09-09T11:46:22;7.80;67.30
68350;DHT22;55268;-34.538;-58.598;2022-09-09T11:49:06;7.90;66.50
68350;DHT22;55268;-34.538;-58.598;2022-09-09T11:51:34;8.00;66.20
68350;DHT22;55268;-34.538;-58.598;2022-09-09T11:54:28;8.10;64.80
68350;DHT22;55268;-34.538;-58.598;2022-09-09T11:56:50;8.00;65.00
68350;DHT22;55268;-34.538;-58.598;2022-09-09T11:59:29;8.00;64.90
68350;DHT22;55268;-34.538;-58.598;2022-09-09T12:17:19;8.40;63.70
68350;DHT22;55268;-34.538;-58.598;2022-09-09T12:19:47;8.40;63.40
68350;DHT22;55268;-34.538;-58.598;2022-09-09T12:22:32;8.50;64.50
68350;DHT22;55268;-34.538;-58.598;2022-09-09T12:25:09;8.50;63.50
68350;DHT22;55268;-34.538;-58.598;2022-09-09T12:27:50;8.50;62.50
68350;DHT22;55268;-34.538;-58.598;2022-09-09T12:30:22;8.50;61.60
68350;DHT22;55268;-34.538;-58.598;2022-09-09T12:33:10;8.50;60.50
68350;DHT22;55268;-34.538;-58.598;2022-09-09T12:35:54;8.50;60.50
68350;DHT22;55268;-34.538;-58.598;2022-09-09T12:40:58;8.50;60.30
68350;DHT22;55268;-34.538;-58.598;2022-09-09T12:43:28;8.60;60.50
68350;DHT22;55268;-34.538;-58.598;2022-09-09T12:45:59;8.60;60.30
68350;DHT22;55268;-34.538;-58.598;2022-09-09T12:48:33;8.70;59.90
68350;DHT22;55268;-34.538;-58.598;2022-09-09T12:51:00;8.60;60.20
68350;DHT22;55268;-34.538;-58.598;2022-09-09T12:56:03;8.70;60.00
68350;DHT22;55268;-34.538;-58.598;2022-09-09T12:58:31;8.80;59.90
68350;DHT22;55268;-34.538;-58.598;2022-09-09T13:00:59;8.70;59.80
68350;DHT22;55268;-34.538;-58.598;2022-09-09T13:03:27;8.80;60.20
68350;DHT22;55268;-34.538;-58.598;2022-09-09T13:05:58;8.80;59.40
68350;DHT22;55268;-34.538;-58.598;2022-09-09T13:08:33;8.80;59.80
68350;DHT22;55268;-34.538;-58.598;2022-09-09T13:11:03;8.80;59.40
68350;DHT22;55268;-34.538;-58.598;2022-09-09T13:13:39;8.90;60.20
68350;DHT22;55268;-34.538;-58.598;2022-09-09T13:16:18;8.90;59.90
68350;DHT22;55268;-34.538;-58.598;2022-09-09T13:18:46;8.90;58.90
68350;DHT22;55268;-34.538;-58.598;2022-09-09T13:21:13;8.90;59.60
68350;DHT22;55268;-34.538;-58.598;2022-09-09T13:23:40;8.90;58.90
68350;DHT22;55268;-34.538;-58.598;2022-09-09T13:26:23;9.00;59.10
68350;DHT22;55268;-34.538;-58.598;2022-09-09T13:28:51;9.00;59.50
68350;DHT22;55268;-34.538;-58.598;2022-09-09T13:31:36;9.00;60.00
68350;DHT22;55268;-34.538;-58.598;2022-09-09T13:34:27;9.10;60.20
68350;DHT22;55268;-34.538;-58.598;2022-09-09T13:37:00;9.20;60.90
68350;DHT22;55268;-34.538;-58.598;2022-09-09T13:39:34;9.30;61.30
68350;DHT22;55268;-34.538;-58.598;2022-09-09T13:42:03;9.40;59.30
68350;DHT22;55268;-34.538;-58.598;2022-09-09T13:44:34;9.40;60.70
68350;DHT22;55268;-34.538;-58.598;2022-09-09T13:47:18;9.50;59.50
68350;DHT22;55268;-34.538;-58.598;2022-09-09T13:49:46;9.40;59.40
68350;DHT22;55268;-34.538;-58.598;2022-09-09T13:52:15;9.30;58.70
68350;DHT22;55268;-34.538;-58.598;2022-09-09T13:54:48;9.30;60.10
68350;DHT22;55268;-34.538;-58.598;2022-09-09T13:57:17;9.30;60.10
68350;DHT22;55268;-34.538;-58.598;2022-09-09T13:59:46;9.50;59.00
68350;DHT22;55268;-34.538;-58.598;2022-09-09T14:02:13;9.50;60.10
68350;DHT22;55268;-34.538;-58.598;2022-09-09T14:04:40;9.60;59.20
68350;DHT22;55268;-34.538;-58.598;2022-09-09T14:07:12;9.60;58.00
68350;DHT22;55268;-34.538;-58.598;2022-09-09T14:09:40;9.50;59.50
68350;DHT22;55268;-34.538;-58.598;2022-09-09T14:12:11;9.40;59.60
68350;DHT22;55268;-34.538;-58.598;2022-09-09T14:14:40;9.40;59.80
68350;DHT22;55268;-34.538;-58.598;2022-09-09T14:17:08;9.40;59.10
68350;DHT22;55268;-34.538;-58.598;2022-09-09T14:19:35;9.30;58.70
68350;DHT22;55268;-34.538;-58.598;2022-09-09T14:22:03;9.30;59.50
68350;DHT22;55268;-34.538;-58.598;2022-09-09T14:24:30;9.40;59.00
68350;DHT22;55268;-34.538;-58.598;2022-09-09T14:26:57;9.50;58.20
68350;DHT22;55268;-34.538;-58.598;2022-09-09T14:29:24;9.60;57.90
68350;DHT22;55268;-34.538;-58.598;2022-09-09T14:31:52;9.70;59.40
68350;DHT22;55268;-34.538;-58.598;2022-09-09T14:34:19;9.80;57.80
68350;DHT22;55268;-34.538;-58.598;2022-09-09T14:36:46;9.90;57.40
68350;DHT22;55268;-34.538;-58.598;2022-09-09T14:39:13;10.00;56.10
68350;DHT22;55268;-34.538;-58.598;2022-09-09T14:41:40;10.10;56.10
68350;DHT22;55268;-34.538;-58.598;2022-09-09T14:44:07;10.10;55.90
68350;DHT22;55268;-34.538;-58.598;2022-09-09T14:46:35;10.20;55.40
68350;DHT22;55268;-34.538;-58.598;2022-09-09T14:49:01;10.30;56.90
68350;DHT22;55268;-34.538;-58.598;2022-09-09T14:51:28;10.40;56.90
68350;DHT22;55268;-34.538;-58.598;2022-09-09T14:53:57;10.40;56.30
68350;DHT22;55268;-34.538;-58.598;2022-09-09T14:56:28;10.40;55.20
68350;DHT22;55268;-34.538;-58.598;2022-09-09T14:58:57;10.40;54.80
68350;DHT22;55268;-34.538;-58.598;2022-09-09T15:01:25;10.40;55.10
68350;DHT22;55268;-34.538;-58.598;2022-09-09T15:03:57;10.50;55.20
68350;DHT22;55268;-34.538;-58.598;2022-09-09T15:06:26;10.50;56.30
68350;DHT22;55268;-34.538;-58.598;2022-09-09T15:08:55;10.60;56.00
68350;DHT22;55268;-34.538;-58.598;2022-09-09T15:11:25;10.80;53.40
68350;DHT22;55268;-34.538;-58.598;2022-09-09T15:13:54;10.70;54.00
68350;DHT22;55268;-34.538;-58.598;2022-09-09T15:16:23;10.70;54.40
68350;DHT22;55268;-34.538;-58.598;2022-09-09T15:18:53;10.70;55.10
68350;DHT22;55268;-34.538;-58.598;2022-09-09T15:21:23;10.60;54.00
68350;DHT22;55268;-34.538;-58.598;2022-09-09T15:23:51;10.70;53.30
68350;DHT22;55268;-34.538;-58.598;2022-09-09T15:26:19;10.60;53.50
68350;DHT22;55268;-34.538;-58.598;2022-09-09T15:28:47;10.60;53.90
68350;DHT22;55268;-34.538;-58.598;2022-09-09T15:36:20;10.80;53.10
68350;DHT22;55268;-34.538;-58.598;2022-09-09T15:38:48;10.80;53.20
68350;DHT22;55268;-34.538;-58.598;2022-09-09T15:41:17;10.90;53.20
68350;DHT22;55268;-34.538;-58.598;2022-09-09T15:43:47;11.00;53.10
68350;DHT22;55268;-34.538;-58.598;2022-09-09T15:46:33;11.00;54.00
68350;DHT22;55268;-34.538;-58.598;2022-09-09T15:51:41;11.10;52.80
68350;DHT22;55268;-34.538;-58.598;2022-09-09T15:54:12;11.20;51.30
68350;DHT22;55268;-34.538;-58.598;2022-09-09T15:56:39;11.10;51.80
68350;DHT22;55268;-34.538;-58.598;2022-09-09T15:59:06;11.10;52.00
68350;DHT22;55268;-34.538;-58.598;2022-09-09T16:01:33;11.20;52.20
68350;DHT22;55268;-34.538;-58.598;2022-09-09T16:04:00;11.30;51.00
68350;DHT22;55268;-34.538;-58.598;2022-09-09T16:06:29;11.30;50.20
68350;DHT22;55268;-34.538;-58.598;2022-09-09T16:08:57;11.30;50.60
68350;DHT22;55268;-34.538;-58.598;2022-09-09T16:11:31;11.20;51.90
68350;DHT22;55268;-34.538;-58.598;2022-09-09T16:13:59;11.20;51.90
68350;DHT22;55268;-34.538;-58.598;2022-09-09T16:16:27;11.20;50.30
68350;DHT22;55268;-34.538;-58.598;2022-09-09T16:18:56;11.10;51.20
68350;DHT22;55268;-34.538;-58.598;2022-09-09T16:21:27;11.20;50.50
68350;DHT22;55268;-34.538;-58.598;2022-09-09T16:23:58;11.30;50.20
68350;DHT22;55268;-34.538;-58.598;2022-09-09T16:26:27;11.40;51.60
68350;DHT22;55268;-34.538;-58.598;2022-09-09T16:28:54;11.40;50.30
68350;DHT22;55268;-34.538;-58.598;2022-09-09T16:31:24;11.50;50.60
68350;DHT22;55268;-34.538;-58.598;2022-09-09T16:33:52;11.60;50.60
68350;DHT22;55268;-34.538;-58.598;2022-09-09T16:36:24;11.60;50.20
68350;DHT22;55268;-34.538;-58.598;2022-09-09T16:38:57;11.60;49.80
68350;DHT22;55268;-34.538;-58.598;2022-09-09T16:41:26;11.60;48.90
68350;DHT22;55268;-34.538;-58.598;2022-09-09T16:43:55;11.60;50.30
68350;DHT22;55268;-34.538;-58.598;2022-09-09T16:46:22;11.60;51.20
68350;DHT22;55268;-34.538;-58.598;2022-09-09T16:48:53;11.70;51.10
68350;DHT22;55268;-34.538;-58.598;2022-09-09T16:51:23;11.80;49.40
68350;DHT22;55268;-34.538;-58.598;2022-09-09T16:53:52;11.70;48.60
68350;DHT22;55268;-34.538;-58.598;2022-09-09T16:56:22;11.50;49.00
68350;DHT22;55268;-34.538;-58.598;2022-09-09T16:58:53;11.50;49.90
68350;DHT22;55268;-34.538;-58.598;2022-09-09T17:01:22;11.40;48.40
68350;DHT22;55268;-34.538;-58.598;2022-09-09T17:03:54;11.50;50.30
68350;DHT22;55268;-34.538;-58.598;2022-09-09T17:06:37;11.60;49.60
68350;DHT22;55268;-34.538;-58.598;2022-09-09T17:09:08;11.70;51.00
68350;DHT22;55268;-34.538;-58.598;2022-09-09T17:35:33;11.90;48.80
68350;DHT22;55268;-34.538;-58.598;2022-09-09T17:38:00;12.00;48.40
68350;DHT22;55268;-34.538;-58.598;2022-09-09T17:40:27;12.00;49.70
68350;DHT22;55268;-34.538;-58.598;2022-09-09T17:42:59;12.00;48.30
68350;DHT22;55268;-34.538;-58.598;2022-09-09T17:45:28;11.90;48.50
68350;DHT22;55268;-34.538;-58.598;2022-09-09T17:47:56;11.90;48.80
68350;DHT22;55268;-34.538;-58.598;2022-09-09T17:50:24;11.90;49.20
68350;DHT22;55268;-34.538;-58.598;2022-09-09T17:52:51;11.90;48.40
68350;DHT22;55268;-34.538;-58.598;2022-09-09T17:55:18;11.90;48.10
68350;DHT22;55268;-34.538;-58.598;2022-09-09T17:57:44;11.90;48.70
68350;DHT22;55268;-34.538;-58.598;2022-09-09T18:00:12;11.90;48.00
68350;DHT22;55268;-34.538;-58.598;2022-09-09T18:02:39;11.90;48.80
68350;DHT22;55268;-34.538;-58.598;2022-09-09T18:05:06;11.90;49.70